Time;durP1;ratioP1;P1;durP2;ratioP2;P2;SDS_P1;SDS_P2;PMS_P1;PMS_P2;Temp;Humidity;BMP_temperature;BMP_pressure;BME280_temperature;BME280_humidity;BME280_pressure;Samples;Min_cycle;Max_cycle;Signal;HPM_P1;HPM_P2
2022/04/06 00:01:04;;;;;;;7.25;3.55;;;;;;;8.24;71.33;98691.59;4233873;33;35121;-71
2022/04/06 00:03:32;;;;;;;9.43;3.65;;;;;;;8.15;71.73;98693.44;4233122;33;34548;-71
2022/04/06 00:05:59;;;;;;;5.62;3.30;;;;;;;8.28;71.33;98699.34;4231989;33;34045;-72
2022/04/06 00:08:27;;;;;;;7.28;3.67;;;;;;;8.21;71.62;98691.66;4233273;33;33879;-71
2022/04/06 00:10:56;;;;;;;5.75;3.03;;;;;;;8.36;70.89;98694.06;4233580;33;36037;-71
2022/04/06 00:13:24;;;;;;;6.07;3.55;;;;;;;8.31;71.31;98703.63;4231773;33;33896;-71
2022/04/06 00:15:53;;;;;;;6.10;3.17;;;;;;;8.20;71.92;98700.31;4244381;33;33953;-71
2022/04/06 00:18:21;;;;;;;5.05;2.78;;;;;;;8.88;68.31;98696.00;4232490;33;34001;-71
2022/04/06 00:20:49;;;;;;;5.22;2.67;;;;;;;9.19;65.16;98692.94;4233758;33;35785;-71
2022/04/06 00:23:17;;;;;;;6.85;3.62;;;;;;;8.37;66.28;98702.72;4233001;33;34495;-71
2022/04/06 00:25:45;;;;;;;7.03;3.60;;;;;;;7.48;70.25;98709.66;4233726;33;33789;-71
2022/04/06 00:28:13;;;;;;;8.70;3.30;;;;;;;7.00;72.26;98712.59;4231789;33;34767;-71
2022/04/06 00:30:41;;;;;;;5.80;3.33;;;;;;;6.61;73.96;98709.38;4232901;33;35029;-71
2022/04/06 00:33:09;;;;;;;6.50;3.47;;;;;;;6.30;74.68;98709.53;4232738;33;34379;-71
2022/04/06 00:35:37;;;;;;;5.28;3.33;;;;;;;7.21;70.68;98711.59;4233591;33;33949;-71
2022/04/06 00:38:07;;;;;;;5.40;3.55;;;;;;;6.93;71.99;98711.78;4232910;33;34814;-71
2022/04/06 00:40:36;;;;;;;4.85;2.78;;;;;;;7.45;70.69;98710.56;4231509;33;34189;-71
2022/04/06 00:43:08;;;;;;;4.05;2.75;;;;;;;7.14;70.38;98720.28;4230980;33;34576;-72
2022/04/06 00:45:40;;;;;;;5.78;3.05;;;;;;;7.56;67.23;98713.91;4244013;33;33698;-71
2022/04/06 00:48:09;;;;;;;5.85;2.95;;;;;;;7.22;73.00;98718.50;4231924;33;34718;-71
2022/04/06 00:50:38;;;;;;;4.53;2.87;;;;;;;6.57;78.21;98711.13;4233418;33;35097;-71
2022/04/06 00:53:06;;;;;;;12.55;3.80;;;;;;;6.78;79.39;98712.72;4232771;33;34543;-71
2022/04/06 00:55:37;;;;;;;6.50;3.37;;;;;;;6.90;79.04;98709.22;4233557;33;33684;-71
2022/04/06 00:58:06;;;;;;;6.53;3.55;;;;;;;6.77;79.49;98710.16;4231720;33;33951;-71
2022/04/06 01:00:34;;;;;;;4.50;3.00;;;;;;;7.34;77.09;98715.81;4232696;33;35775;-71
2022/04/06 01:03:03;;;;;;;9.15;2.87;;;;;;;7.23;77.50;98709.84;4231632;33;34353;-71
2022/04/06 01:05:31;;;;;;;4.78;2.95;;;;;;;7.50;76.43;98703.59;4233527;33;34391;-71
2022/04/06 01:08:01;;;;;;;5.37;3.03;;;;;;;7.93;74.92;98710.09;4232734;33;34039;-71
2022/04/06 01:10:29;;;;;;;5.85;3.47;;;;;;;7.92;74.67;98711.84;4233469;33;35912;-71
2022/04/06 01:12:57;;;;;;;6.72;3.10;;;;;;;7.76;72.40;98712.84;4232419;33;35147;-72
2022/04/06 01:15:26;;;;;;;8.20;3.35;;;;;;;8.26;71.11;98711.47;4233231;33;33665;-72
2022/04/06 01:17:53;;;;;;;4.82;3.15;;;;;;;8.36;70.75;98717.41;4231588;33;34020;-71
2022/04/06 01:20:22;;;;;;;5.32;3.05;;;;;;;8.65;69.89;98721.44;4233610;33;35187;-72
2022/04/06 01:22:49;;;;;;;7.32;3.53;;;;;;;8.28;70.69;98727.03;4231602;33;34663;-71
2022/04/06 01:25:17;;;;;;;7.20;3.97;;;;;;;8.16;71.32;98728.00;4232158;33;33651;-71
2022/04/06 01:27:45;;;;;;;5.25;2.70;;;;;;;8.59;70.17;98718.91;4232548;33;34806;-72
2022/04/06 01:30:13;;;;;;;5.78;3.60;;;;;;;8.95;68.92;98721.88;4233346;33;35864;-71
2022/04/06 01:32:41;;;;;;;7.35;3.62;;;;;;;8.31;70.85;98714.00;4231343;33;35244;-72
2022/04/06 01:35:09;;;;;;;7.05;3.67;;;;;;;7.67;74.56;98721.56;4232608;33;34472;-71
2022/04/06 01:37:37;;;;;;;7.70;4.18;;;;;;;8.95;70.06;98712.34;4232534;33;33931;-71
2022/04/06 01:40:05;;;;;;;7.43;3.55;;;;;;;8.47;71.18;98710.41;4232410;33;35899;-71
2022/04/06 01:42:33;;;;;;;5.00;3.00;;;;;;;8.37;72.20;98713.94;4231530;33;35034;-71
2022/04/06 01:45:01;;;;;;;5.97;3.62;;;;;;;8.31;72.36;98714.00;4233083;33;33687;-71
2022/04/06 01:47:29;;;;;;;7.40;4.15;;;;;;;8.32;72.43;98718.31;4233232;33;34745;-71
2022/04/06 01:52:44;;;;;;;6.07;3.95;;;;;;;8.22;72.06;98714.13;4230878;33;34475;-71
2022/04/06 01:55:14;;;;;;;6.60;4.12;;;;;;;8.38;72.27;98714.78;4232861;33;33742;-71
2022/04/06 01:57:43;;;;;;;11.85;3.80;;;;;;;8.65;71.03;98718.81;4231140;33;34585;-71
2022/04/06 02:00:15;;;;;;;6.30;3.60;;;;;;;8.40;71.52;98716.50;4233163;33;35137;-71
2022/04/06 02:02:47;;;;;;;5.40;3.10;;;;;;;8.25;72.10;98719.28;4230420;33;35042;-71
2022/04/06 02:05:16;;;;;;;8.05;3.00;;;;;;;7.92;73.12;98710.97;4220548;33;33230;-72
2022/04/06 02:07:47;;;;;;;6.15;3.05;;;;;;;8.38;71.28;98709.59;4232312;33;33748;-71
2022/04/06 02:10:17;;;;;;;6.62;3.08;;;;;;;8.28;71.12;98711.47;4231961;33;35299;-71
2022/04/06 02:12:45;;;;;;;7.97;4.25;;;;;;;8.01;72.75;98710.88;4231072;33;34580;-71
2022/04/06 02:15:14;;;;;;;7.37;4.07;;;;;;;8.08;73.00;98707.38;4232869;33;33767;-71
2022/04/06 02:17:43;;;;;;;8.63;4.32;;;;;;;8.15;73.04;98703.81;4231172;33;33845;-71
2022/04/06 02:20:11;;;;;;;6.90;3.65;;;;;;;8.13;73.19;98700.38;4232822;33;35449;-71
2022/04/06 02:22:41;;;;;;;8.18;4.25;;;;;;;8.09;73.46;98708.22;4232377;33;34619;-71
2022/04/06 02:25:12;;;;;;;7.28;4.18;;;;;;;8.20;72.72;98700.31;4232568;33;33695;-71
2022/04/06 02:27:48;;;;;;;11.02;5.90;;;;;;;8.14;72.55;98706.44;4231205;33;33083;-71
2022/04/06 02:30:17;;;;;;;10.85;4.78;;;;;;;8.78;69.48;98704.78;4230937;33;35832;-71
2022/04/06 02:32:46;;;;;;;6.82;3.58;;;;;;;9.51;65.32;98701.94;4232092;33;34452;-71
2022/04/06 02:35:14;;;;;;;7.87;3.78;;;;;;;8.95;65.12;98709.75;4232369;33;33646;-71
2022/04/06 02:37:44;;;;;;;8.38;4.07;;;;;;;8.36;67.23;98707.03;4232548;33;34755;-71
2022/04/06 02:40:13;;;;;;;9.65;4.72;;;;;;;8.53;66.01;98710.31;4232331;33;34591;-71
2022/04/06 02:42:43;;;;;;;9.70;4.32;;;;;;;6.83;73.58;98713.56;4230630;33;34782;-72
2022/04/06 02:45:11;;;;;;;9.40;4.55;;;;;;;7.51;72.36;98714.81;4231851;33;34403;-71
2022/04/06 02:47:46;;;;;;;6.70;3.25;;;;;;;7.38;72.62;98703.72;4231666;33;33887;-71
2022/04/06 02:50:14;;;;;;;6.03;3.12;;;;;;;6.83;72.76;98699.78;4230693;33;35978;-71
2022/04/06 02:52:42;;;;;;;7.57;3.65;;;;;;;6.68;72.29;98702.44;4232399;33;34567;-71
2022/04/06 02:55:12;;;;;;;5.22;2.95;;;;;;;6.87;71.83;98706.66;4231523;33;33988;-71
2022/04/06 02:57:42;;;;;;;6.25;3.67;;;;;;;7.17;70.24;98709.91;4232404;33;33807;-72
2022/04/06 03:00:13;;;;;;;6.15;3.62;;;;;;;7.46;69.03;98711.41;4231562;33;35160;-71
2022/04/06 03:02:46;;;;;;;7.10;4.07;;;;;;;6.48;71.95;98708.59;4231600;33;33912;-71
2022/04/06 03:05:14;;;;;;;6.97;4.05;;;;;;;6.58;72.37;98715.44;4232835;33;33299;-70
2022/04/06 03:07:42;;;;;;;8.27;2.60;;;;;;;6.89;71.92;98712.66;4221601;33;33852;-70
2022/04/06 03:10:10;;;;;;;5.80;3.20;;;;;;;6.38;74.13;98722.41;4233491;33;35923;-70
2022/04/06 03:12:38;;;;;;;6.07;3.20;;;;;;;6.64;73.17;98725.75;4234050;33;34585;-70
2022/04/06 03:15:06;;;;;;;8.07;4.40;;;;;;;7.00;72.26;98726.38;4233247;33;33705;-70
2022/04/06 03:17:35;;;;;;;7.32;4.18;;;;;;;7.38;72.39;98727.87;4230996;33;34705;-71
2022/04/06 03:20:05;;;;;;;7.82;4.12;;;;;;;7.18;76.11;98725.44;4232468;33;35084;-70
2022/04/06 03:22:33;;;;;;;8.95;3.87;;;;;;;7.29;76.87;98725.34;4232871;33;34516;-70
2022/04/06 03:25:01;;;;;;;8.13;4.35;;;;;;;7.80;76.30;98719.75;4233143;33;34474;-69
2022/04/06 03:27:29;;;;;;;12.02;4.30;;;;;;;7.53;78.20;98723.44;4233621;33;34740;-70
2022/04/06 03:29:57;;;;;;;8.10;5.05;;;;;;;8.21;75.94;98718.44;4232998;33;34906;-70
2022/04/06 03:32:25;;;;;;;7.62;4.72;;;;;;;8.18;76.16;98717.62;4233577;33;34486;-70
2022/04/06 03:34:53;;;;;;;8.85;4.90;;;;;;;8.23;76.22;98710.66;4233081;33;32657;-71
2022/04/06 03:37:21;;;;;;;10.70;4.97;;;;;;;8.68;74.63;98713.56;4233749;33;33887;-71
2022/04/06 03:39:49;;;;;;;8.48;4.68;;;;;;;8.62;74.64;98714.53;4232343;33;35087;-70
2022/04/06 03:42:17;;;;;;;8.40;4.50;;;;;;;8.77;73.80;98712.59;4232675;33;35167;-71
2022/04/06 03:44:45;;;;;;;6.72;4.32;;;;;;;8.83;73.18;98710.78;4231851;33;33560;-71
2022/04/06 03:47:13;;;;;;;7.72;4.22;;;;;;;8.58;72.07;98714.56;4233808;33;33888;-71
2022/04/06 03:49:41;;;;;;;6.47;4.30;;;;;;;8.62;71.83;98730.09;4232974;33;35000;-71
2022/04/06 03:52:09;;;;;;;7.93;4.65;;;;;;;8.48;71.60;98726.81;4233007;33;34510;-71
2022/04/06 03:54:36;;;;;;;8.70;4.15;;;;;;;8.13;72.07;98728.87;4232483;33;33861;-71
2022/04/06 03:57:05;;;;;;;7.50;4.53;;;;;;;8.34;71.03;98735.56;4232915;33;34050;-71
2022/04/06 03:59:33;;;;;;;10.00;4.53;;;;;;;7.99;73.53;98733.38;4232915;33;35241;-71
2022/04/06 04:02:01;;;;;;;8.77;4.87;;;;;;;8.24;74.11;98733.97;4233455;33;34518;-72
2022/04/06 04:04:29;;;;;;;8.80;4.18;;;;;;;8.24;75.13;98722.72;4232781;33;34454;-70
2022/04/06 04:06:57;;;;;;;9.23;5.30;;;;;;;8.34;75.02;98724.34;4233595;33;33867;-71
2022/04/06 04:09:30;;;;;;;6.70;3.75;;;;;;;9.01;72.33;98716.59;4232733;33;34356;-70
2022/04/06 04:11:58;;;;;;;7.25;4.00;;;;;;;9.03;71.90;98715.69;4233565;33;34381;-71
2022/04/06 04:14:26;;;;;;;8.23;4.37;;;;;;;9.23;71.41;98722.31;4232161;33;33633;-71
2022/04/06 04:16:54;;;;;;;7.78;4.50;;;;;;;9.33;70.72;98723.03;4233590;33;33915;-71
2022/04/06 04:19:22;;;;;;;6.47;3.78;;;;;;;9.10;71.20;98719.06;4232478;33;35144;-71
2022/04/06 04:21:50;;;;;;;7.35;4.55;;;;;;;9.33;70.51;98717.84;4233441;33;35272;-71
2022/04/06 04:24:18;;;;;;;7.65;3.60;;;;;;;9.21;71.21;98719.78;4232641;33;33695;-71
2022/04/06 04:26:46;;;;;;;8.85;4.28;;;;;;;9.18;70.75;98713.75;4233478;33;33883;-71
2022/04/06 04:29:14;;;;;;;7.53;4.18;;;;;;;9.74;69.09;98724.09;4231593;33;35784;-70
2022/04/06 04:31:42;;;;;;;6.65;3.47;;;;;;;9.59;69.06;98726.06;4232764;33;35287;-70
2022/04/06 04:34:10;;;;;;;6.95;4.00;;;;;;;9.02;69.29;98732.16;4232678;33;33805;-70
2022/04/06 04:36:38;;;;;;;7.60;4.43;;;;;;;8.92;69.12;98733.16;4232299;33;34736;-71
2022/04/06 04:39:06;;;;;;;6.47;3.87;;;;;;;8.49;71.37;98744.13;4232758;33;35047;-71
2022/04/06 04:41:34;;;;;;;6.70;4.12;;;;;;;8.63;70.57;98738.72;4233588;33;34542;-71
2022/04/06 04:44:02;;;;;;;6.12;3.85;;;;;;;8.53;70.94;98750.97;4232841;33;33703;-71
2022/04/06 04:46:30;;;;;;;7.05;4.10;;;;;;;8.90;69.25;98753.94;4233664;33;33888;-70
2022/04/06 04:48:58;;;;;;;8.40;4.45;;;;;;;8.95;68.89;98747.81;4232732;33;35102;-71
2022/04/06 04:51:28;;;;;;;8.93;4.50;;;;;;;9.30;68.26;98748.19;4233581;33;34616;-72
2022/04/06 04:53:57;;;;;;;8.05;4.70;;;;;;;9.45;67.37;98744.50;4232784;33;33709;-72
2022/04/06 04:56:28;;;;;;;8.80;4.35;;;;;;;10.03;65.30;98740.03;4233541;33;34964;-74
2022/04/06 04:58:56;;;;;;;6.80;3.92;;;;;;;9.23;68.06;98733.59;4208892;33;33844;-74
2022/04/06 05:01:24;;;;;;;7.28;4.15;;;;;;;9.14;68.95;98743.25;4220915;33;34477;-75
2022/04/06 05:03:53;;;;;;;17.40;9.82;;;;;;;9.30;69.26;98748.19;4219476;33;33579;-72
2022/04/06 05:06:21;;;;;;;8.10;4.60;;;;;;;9.54;68.65;98746.09;4233658;33;34746;-72
2022/04/06 05:08:49;;;;;;;6.22;3.83;;;;;;;9.36;69.62;98754.19;4230881;33;35095;-71
2022/04/06 05:11:18;;;;;;;7.15;3.62;;;;;;;9.33;69.75;98755.06;4233436;33;34522;-72
2022/04/06 05:13:46;;;;;;;6.90;3.80;;;;;;;10.04;67.62;98759.09;4240647;33;33026;-71
2022/04/06 05:16:13;;;;;;;6.53;3.37;;;;;;;10.25;66.40;98752.66;4233080;33;33971;-71
2022/04/06 05:18:42;;;;;;;7.07;3.65;;;;;;;10.25;66.57;98757.84;4229400;33;33494;-70
2022/04/06 05:21:10;;;;;;;7.03;3.87;;;;;;;10.30;65.63;98755.19;4232299;33;34199;-69
2022/04/06 05:23:38;;;;;;;5.93;3.50;;;;;;;9.89;67.50;98755.03;4232594;33;33560;-71
2022/04/06 05:26:06;;;;;;;7.62;3.97;;;;;;;9.88;67.72;98758.50;4230116;33;34692;-72
2022/04/06 05:28:34;;;;;;;5.45;3.70;;;;;;;10.25;67.36;98758.72;4232996;33;35875;-72
2022/04/06 05:31:02;;;;;;;7.05;4.35;;;;;;;10.47;66.99;98762.69;4231554;33;33879;-71
2022/04/06 05:33:30;;;;;;;6.53;3.70;;;;;;;10.20;67.43;98762.28;4230669;33;33497;-71
2022/04/06 05:35:58;;;;;;;5.70;3.47;;;;;;;10.09;67.54;98766.84;4231784;33;33986;-70
2022/04/06 05:38:25;;;;;;;6.28;3.58;;;;;;;9.99;68.70;98771.34;4233303;33;34779;-71
2022/04/06 05:40:53;;;;;;;6.87;3.90;;;;;;;10.16;68.82;98778.84;4232465;33;34541;-70
2022/04/06 05:43:21;;;;;;;7.75;4.32;;;;;;;9.85;70.39;98779.41;4232453;33;33681;-71
2022/04/06 05:45:49;;;;;;;6.80;3.80;;;;;;;10.74;67.29;98779.50;4232513;33;34858;-71
2022/04/06 05:48:18;;;;;;;5.50;3.40;;;;;;;11.11;65.60;98787.38;4233312;33;35051;-71
2022/04/06 05:50:46;;;;;;;5.90;3.92;;;;;;;10.67;68.65;98789.19;4231608;33;35386;-71
2022/04/06 05:53:15;;;;;;;8.15;3.65;;;;;;;11.56;64.19;98789.00;4233097;33;34329;-71
2022/04/06 05:55:45;;;;;;;6.45;3.95;;;;;;;11.42;64.80;98791.06;4232313;33;34447;-71
2022/04/06 05:58:14;;;;;;;6.78;3.67;;;;;;;10.97;66.83;98799.84;4231981;33;35173;-71
2022/04/06 06:00:43;;;;;;;6.30;3.50;;;;;;;11.20;66.00;98805.41;4231061;33;34344;-71
2022/04/06 06:03:11;;;;;;;7.53;4.20;;;;;;;10.99;66.71;98793.75;4232232;33;33660;-72
2022/04/06 06:05:39;;;;;;;7.53;3.67;;;;;;;10.91;67.06;98789.59;4232164;33;33950;-71
2022/04/06 06:08:17;;;;;;;9.07;4.65;;;;;;;11.67;64.10;98794.81;4233108;33;34969;-71
2022/04/06 06:10:46;;;;;;;7.12;3.53;;;;;;;12.10;60.40;98792.91;4232077;33;34511;-71
2022/04/06 06:13:14;;;;;;;7.37;4.15;;;;;;;11.66;62.25;98794.84;4231701;33;33520;-71
2022/04/06 06:15:42;;;;;;;8.65;4.75;;;;;;;12.11;61.56;98789.41;4231519;33;33957;-71
2022/04/06 06:18:12;;;;;;;9.57;4.75;;;;;;;11.48;61.64;98781.34;4232736;33;35862;-72
2022/04/06 06:20:41;;;;;;;7.50;4.35;;;;;;;12.09;61.54;98794.69;4231245;33;34561;-71
2022/04/06 06:23:09;;;;;;;7.68;4.28;;;;;;;12.63;59.10;98805.44;4231846;33;33189;-70
2022/04/06 06:25:37;;;;;;;8.90;4.07;;;;;;;12.60;60.56;98801.16;4232001;33;33893;-71
2022/04/06 06:28:05;;;;;;;10.88;4.65;;;;;;;12.92;60.83;98791.56;4232707;33;35028;-71
2022/04/06 06:30:33;;;;;;;8.60;4.05;;;;;;;13.64;58.31;98796.34;4231822;33;34680;-72
2022/04/06 06:33:01;;;;;;;10.60;4.62;;;;;;;13.57;59.87;98795.72;4232711;33;33704;-71
2022/04/06 06:35:29;;;;;;;9.30;5.15;;;;;;;14.03;55.75;98793.38;4230529;33;34033;-72
2022/04/06 06:37:57;;;;;;;11.27;4.80;;;;;;;15.06;50.40;98792.34;4232817;33;34923;-70
2022/04/06 06:40:26;;;;;;;10.85;5.70;;;;;;;15.63;49.42;98795.34;4231444;33;35404;-72
2022/04/06 06:42:54;;;;;;;14.70;8.10;;;;;;;14.79;50.76;98783.75;4233101;33;34419;-71
2022/04/06 06:45:22;;;;;;;15.73;6.90;;;;;;;15.29;48.71;98786.19;4231409;33;34794;-71
2022/04/06 06:47:51;;;;;;;20.35;8.80;;;;;;;15.46;48.23;98784.69;4234002;33;35049;-71
2022/04/06 06:50:19;;;;;;;16.73;8.00;;;;;;;14.97;50.26;98790.06;4233411;33;35308;-72
2022/04/06 06:52:47;;;;;;;21.50;9.25;;;;;;;15.30;49.36;98787.91;4233406;33;34550;-72
2022/04/06 06:55:18;;;;;;;16.92;8.00;;;;;;;16.26;47.53;98787.53;4232073;33;33937;-71
2022/04/06 06:57:47;;;;;;;15.63;7.60;;;;;;;16.92;44.52;98783.78;4233453;33;35860;-72
2022/04/06 07:00:15;;;;;;;17.98;9.65;;;;;;;16.50;44.93;98784.78;4233458;33;34512;-73
2022/04/06 07:02:43;;;;;;;26.05;10.55;;;;;;;17.57;42.97;98789.50;4244641;33;33588;-73
2022/04/06 07:05:11;;;;;;;23.73;9.02;;;;;;;17.24;42.27;98784.06;4243817;33;34051;-73
2022/04/06 07:07:49;;;;;;;18.15;8.13;;;;;;;16.84;42.03;98783.31;4244490;33;35048;-72
2022/04/06 07:10:17;;;;;;;18.95;8.55;;;;;;;16.82;43.84;98780.72;4242835;33;35111;-73
2022/04/06 07:12:45;;;;;;;14.02;7.25;;;;;;;16.82;42.99;98785.97;4234212;33;34452;-72
2022/04/06 07:15:14;;;;;;;16.98;7.37;;;;;;;16.45;42.76;98787.59;4233073;33;34899;-71
2022/04/06 07:17:42;;;;;;;17.40;8.40;;;;;;;16.92;41.28;98781.16;4232248;33;35034;-72
2022/04/06 07:20:11;;;;;;;17.70;6.68;;;;;;;16.89;43.15;98790.97;4232274;33;34431;-72
2022/04/06 07:22:38;;;;;;;12.45;7.30;;;;;;;17.47;40.60;98793.53;4234263;33;33811;-73
2022/04/06 07:25:08;;;;;;;16.12;8.30;;;;;;;16.67;42.33;98792.75;4232420;33;34679;-71
2022/04/06 07:27:37;;;;;;;12.65;6.78;;;;;;;16.90;42.37;98800.56;4234136;33;34360;-71
2022/04/06 07:30:07;;;;;;;13.35;6.62;;;;;;;17.66;41.26;98790.00;4231761;33;34401;-71
2022/04/06 07:32:35;;;;;;;14.25;6.70;;;;;;;17.01;42.23;98785.16;4232150;33;33835;-71
2022/04/06 07:35:05;;;;;;;16.55;7.45;;;;;;;17.32;41.58;98789.84;4233246;33;34892;-72
2022/04/06 07:37:38;;;;;;;12.23;6.78;;;;;;;17.37;42.31;98802.78;4232830;33;34909;-72
2022/04/06 07:40:10;;;;;;;15.68;6.95;;;;;;;17.49;42.09;98802.22;4232210;33;34520;-72
2022/04/06 07:42:39;;;;;;;15.63;7.55;;;;;;;17.53;41.92;98797.66;4232940;33;33518;-71
2022/04/06 07:45:10;;;;;;;12.48;6.43;;;;;;;17.88;41.80;98798.59;4232074;33;34004;-70
2022/04/06 07:47:38;;;;;;;13.15;7.65;;;;;;;18.16;40.13;98797.22;4233126;33;35865;-70
2022/04/06 07:50:06;;;;;;;13.68;7.18;;;;;;;18.37;40.64;98796.13;4232648;33;34599;-72
2022/04/06 07:52:36;;;;;;;16.48;7.10;;;;;;;17.55;43.04;98794.00;4243249;33;34504;-72
2022/04/06 07:55:06;;;;;;;15.20;7.57;;;;;;;17.56;42.05;98800.12;4243143;33;33395;-72
2022/04/06 07:57:36;;;;;;;13.00;7.25;;;;;;;16.57;43.87;98806.38;4244164;33;34452;-72
2022/04/06 08:00:09;;;;;;;21.27;15.70;;;;;;;16.44;44.56;98806.91;4233073;33;34713;-71
2022/04/06 08:02:37;;;;;;;16.00;8.02;;;;;;;16.40;44.73;98805.34;4232047;33;33723;-70
2022/04/06 08:05:06;;;;;;;14.48;7.65;;;;;;;16.93;43.95;98808.34;4231706;33;34778;-71
2022/04/06 08:07:39;;;;;;;12.18;6.82;;;;;;;16.33;48.03;98801.28;4233779;33;35007;-73
2022/04/06 08:10:08;;;;;;;10.63;6.12;;;;;;;16.63;45.14;98800.84;4242814;33;34647;-71
2022/04/06 08:12:37;;;;;;;14.70;6.93;;;;;;;17.50;44.53;98795.16;4233825;33;33690;-71
2022/04/06 08:15:06;;;;;;;11.32;6.35;;;;;;;18.26;42.51;98798.44;4232864;33;34076;-70
2022/04/06 08:17:45;;;;;;;10.60;6.45;;;;;;;18.23;41.54;98792.47;4232542;33;35059;-71
2022/04/06 08:20:14;;;;;;;19.85;14.30;;;;;;;18.68;41.18;98794.50;4232690;33;35794;-71
2022/04/06 08:22:44;;;;;;;12.85;6.03;;;;;;;19.47;39.84;98795.59;4233738;33;34459;-71
2022/04/06 08:25:14;;;;;;;10.23;5.28;;;;;;;19.65;38.45;98796.34;4233281;33;34847;-73
2022/04/06 08:28:04;;;;;;;12.68;6.25;;;;;;;19.28;37.82;98783.41;4241334;33;35052;-72
2022/04/06 08:30:37;;;;;;;10.93;5.22;;;;;;;18.90;40.07;98786.34;4232842;33;34385;-72
2022/04/06 08:33:06;;;;;;;10.52;4.87;;;;;;;19.57;36.96;98791.50;4233679;33;34654;-73
2022/04/06 08:35:35;;;;;;;13.62;5.12;;;;;;;19.67;37.56;98791.81;4232767;33;34762;-72
2022/04/06 08:38:03;;;;;;;9.52;4.85;;;;;;;19.94;37.55;98796.47;4233542;33;34985;-71
2022/04/06 08:40:33;;;;;;;10.75;5.57;;;;;;;19.69;36.56;98800.50;4242789;33;34501;-71
2022/04/06 08:43:01;;;;;;;17.25;5.40;;;;;;;20.17;36.64;98793.34;4232514;33;33727;-71
2022/04/06 08:45:29;;;;;;;9.50;5.15;;;;;;;20.03;36.32;98796.81;4231696;33;34847;-71
2022/04/06 08:47:57;;;;;;;10.52;5.20;;;;;;;20.10;37.44;98799.06;4232510;33;34993;-73
2022/04/06 08:50:29;;;;;;;9.18;4.93;;;;;;;20.50;37.68;98802.84;4243105;33;34363;-73
2022/04/06 08:52:58;;;;;;;8.65;4.93;;;;;;;20.42;36.30;98797.19;4231781;33;33610;-73
2022/04/06 08:55:29;;;;;;;8.40;4.60;;;;;;;20.21;35.53;98794.03;4232825;33;33798;-73
2022/04/06 08:57:58;;;;;;;9.48;5.22;;;;;;;19.76;39.82;98787.81;4233696;33;35742;-73
2022/04/06 09:00:26;;;;;;;9.60;5.00;;;;;;;20.21;37.75;98792.22;4231652;33;34489;-73
2022/04/06 09:02:54;;;;;;;8.82;5.18;;;;;;;20.34;36.71;98799.44;4233517;33;33586;-71
2022/04/06 09:05:26;;;;;;;9.77;5.00;;;;;;;20.44;36.27;98797.94;4231575;33;33847;-71
2022/04/06 09:07:55;;;;;;;11.68;6.10;;;;;;;20.76;36.33;98788.06;4232291;33;34273;-72
2022/04/06 09:10:34;;;;;;;9.07;5.90;;;;;;;20.53;37.37;98783.31;4232445;33;35127;-70
2022/04/06 09:13:20;;;;;;;8.18;4.80;;;;;;;21.01;37.57;98790.03;4233480;33;33809;-73
2022/04/06 09:15:53;;;;;;;8.52;5.28;;;;;;;20.64;35.98;98794.94;4232539;33;33844;-73
2022/04/06 09:18:35;;;;;;;7.32;4.65;;;;;;;20.69;37.17;98777.97;4231554;33;34811;-73
2022/04/06 09:21:03;;;;;;;8.63;4.72;;;;;;;20.64;36.63;98788.81;4231300;33;34485;-71
2022/04/06 09:23:32;;;;;;;8.27;5.57;;;;;;;20.70;35.10;98780.53;4232494;33;33591;-71
2022/04/06 09:26:05;;;;;;;10.05;5.40;;;;;;;21.45;34.85;98776.72;4231928;33;34047;-73
2022/04/06 09:28:47;;;;;;;7.97;5.10;;;;;;;21.08;35.04;98779.09;4231539;33;36026;-72
2022/04/06 09:31:23;;;;;;;10.18;6.10;;;;;;;21.78;34.33;98771.06;4479976;32;201370;-71
2022/04/06 09:33:59;;;;;;;8.27;5.07;;;;;;;21.78;34.33;98771.06;4466380;32;33280;-73
2022/04/06 09:36:28;;;;;;;9.38;5.25;;;;;;;21.23;36.85;98770.19;4456938;32;34723;-72
2022/04/06 09:38:57;;;;;;;8.68;4.43;;;;;;;21.25;34.43;98768.28;4466379;32;34964;-72
2022/04/06 09:41:25;;;;;;;8.23;5.37;;;;;;;21.35;33.88;98760.56;4455659;32;35061;-70
2022/04/06 09:43:54;;;;;;;10.63;5.82;;;;;;;21.86;33.45;98765.25;4466563;32;34313;-70
2022/04/06 09:49:18;;;;;;;11.55;5.90;;;;;;;21.41;33.67;98752.25;4465611;32;35175;-73
2022/04/06 09:51:50;;;;;;;8.07;5.22;;;;;;;21.29;33.79;98745.94;4456145;32;34350;-72
2022/04/06 09:54:18;;;;;;;8.52;5.12;;;;;;;21.04;36.65;98745.81;4467062;32;33409;-72
2022/04/06 09:56:47;;;;;;;9.85;6.32;;;;;;;21.38;33.88;98742.69;4469402;32;34858;-72
2022/04/06 09:59:15;;;;;;;9.25;5.60;;;;;;;21.59;35.06;98739.62;4466216;32;36017;-74
2022/04/06 10:01:52;;;;;;;10.00;5.07;;;;;;;22.06;35.69;98737.38;4465234;32;34250;-73
2022/04/06 10:04:24;;;;;;;11.05;5.97;;;;;;;22.31;33.91;98733.97;4466364;32;33539;-73
2022/04/06 10:06:52;;;;;;;12.02;5.50;;;;;;;21.66;37.00;98727.66;4465672;32;34737;-72
2022/04/06 10:09:20;;;;;;;9.80;5.20;;;;;;;22.36;32.65;98725.66;4465021;32;35062;-74
2022/04/06 10:11:51;;;;;;;11.27;3.92;;;;;;;22.13;33.24;98720.97;4476840;32;35212;-73
2022/04/06 10:14:19;;;;;;;8.93;3.95;;;;;;;22.07;29.99;98726.69;4481838;32;32637;-70
2022/04/06 10:16:47;;;;;;;6.18;3.87;;;;;;;22.63;30.19;98725.56;4453547;32;33468;-72
2022/04/06 10:19:19;;;;;;;7.32;4.60;;;;;;;22.40;31.16;98719.22;4462268;32;35975;-72
2022/04/06 10:21:55;;;;;;;12.82;5.43;;;;;;;21.40;32.05;98722.25;4452165;32;34419;-72
2022/04/06 10:24:29;;;;;;;10.30;4.70;;;;;;;21.02;34.24;98712.34;4466209;32;33338;-73
2022/04/06 10:27:29;;;;;;;12.25;5.57;;;;;;;21.31;33.48;98722.00;4451856;32;33994;-73
2022/04/06 10:30:12;;;;;;;9.80;5.43;;;;;;;20.76;33.83;98715.78;4447433;32;35876;-71
2022/04/06 10:32:42;;;;;;;14.57;6.35;;;;;;;20.71;34.46;98712.59;4452085;32;34748;-70
2022/04/06 10:35:32;;;;;;;9.88;5.65;;;;;;;20.05;35.86;98701.56;4451151;32;32628;-72
2022/04/06 10:38:03;;;;;;;7.90;5.12;;;;;;;20.08;35.67;98704.87;4465793;32;34391;-71
2022/04/06 10:40:46;;;;;;;8.02;5.18;;;;;;;19.17;36.79;98697.84;4464924;32;35039;-71
2022/04/06 10:43:40;;;;;;;11.00;5.70;;;;;;;19.97;34.98;98701.16;4455375;32;34351;-70
2022/04/06 10:46:09;;;;;;;11.12;5.85;;;;;;;20.79;34.81;98697.09;4454948;32;34264;-71
2022/04/06 10:49:10;;;;;;;9.98;5.35;;;;;;;20.80;34.25;98698.75;4454063;32;34034;-70
2022/04/06 10:51:50;;;;;;;12.13;5.93;;;;;;;20.64;34.60;98699.72;4454514;32;35794;-71
2022/04/06 10:54:18;;;;;;;12.60;6.78;;;;;;;20.51;35.02;98690.00;4441600;32;34300;-71
2022/04/06 10:56:48;;;;;;;10.82;6.32;;;;;;;20.38;36.28;98687.22;4464762;32;34249;-70
2022/04/06 10:59:17;;;;;;;12.98;7.32;;;;;;;21.16;34.73;98678.81;4470836;32;33014;-71
2022/04/06 11:01:46;;;;;;;10.82;6.55;;;;;;;22.15;33.55;98681.09;4469424;32;35136;-70
2022/04/06 11:04:21;;;;;;;11.77;6.80;;;;;;;22.47;32.03;98676.22;4457158;32;35163;-71
2022/04/06 11:06:57;;;;;;;11.57;7.05;;;;;;;22.64;33.27;98671.53;4460081;32;33390;-71
2022/04/06 11:12:22;;;;;;;12.45;8.30;;;;;;;23.11;32.79;98654.00;4456527;32;34403;-73
2022/04/06 11:15:10;;;;;;;11.15;7.45;;;;;;;21.98;32.21;98655.75;4470995;32;34441;-71
2022/04/06 11:17:42;;;;;;;12.23;7.45;;;;;;;22.74;34.83;98648.69;4454920;32;33551;-71
2022/04/06 11:20:29;;;;;;;18.37;8.20;;;;;;;24.06;30.82;98650.50;4455390;32;34885;-72
2022/04/06 11:22:58;;;;;;;12.25;8.27;;;;;;;24.31;30.11;98647.59;4442113;32;35018;-71
2022/04/06 11:25:30;;;;;;;13.07;8.32;;;;;;;23.99;30.67;98645.63;4454951;32;34448;-71
2022/04/06 11:28:06;;;;;;;12.07;7.57;;;;;;;23.10;34.60;98639.00;4454694;32;33161;-70
2022/04/06 11:30:34;;;;;;;12.25;7.72;;;;;;;21.66;34.24;98637.59;4453995;32;33972;-71
2022/04/06 11:33:03;;;;;;;14.45;8.57;;;;;;;22.12;34.54;98628.28;4470680;32;34893;-71
2022/04/06 11:35:36;;;;;;;16.33;9.60;;;;;;;21.23;36.23;98624.53;4469302;32;34995;-71
2022/04/06 11:38:06;;;;;;;15.65;8.68;;;;;;;22.75;32.94;98626.50;4455189;32;33461;-72
2022/04/06 11:40:37;;;;;;;16.62;9.57;;;;;;;21.92;35.83;98611.13;4454648;32;34144;-71
2022/04/06 11:43:05;;;;;;;12.15;8.18;;;;;;;22.61;34.26;98619.53;4455108;32;35258;-71
2022/04/06 11:45:40;;;;;;;14.15;9.27;;;;;;;23.10;33.92;98607.16;4454880;32;34316;-71
2022/04/06 11:48:11;;;;;;;12.52;8.55;;;;;;;22.54;34.41;98597.06;4454186;32;34341;-71
2022/04/06 11:50:41;;;;;;;15.13;9.23;;;;;;;23.69;32.67;98608.94;4454752;32;34820;-71
2022/04/06 11:53:15;;;;;;;11.93;7.85;;;;;;;22.99;32.05;98591.13;4453800;32;33477;-71
2022/04/06 11:55:50;;;;;;;11.07;7.75;;;;;;;23.15;30.24;98583.75;4456390;32;35093;-72